sensor_id;sensor_type;location;lat;lon;timestamp;pressure;altitude;pressure_sealevel;temperature;humidity
55538;BME280;41383;51.418;7.286;2022-12-18T00:00:44;101021.63;;;-1.06;61.22
55538;BME280;41383;51.418;7.286;2022-12-18T00:03:09;101024.88;;;-0.94;61.23
55538;BME280;41383;51.418;7.286;2022-12-18T00:05:35;101031.94;;;-0.85;61.36
55538;BME280;41383;51.418;7.286;2022-12-18T00:08:01;101035.19;;;-0.73;60.78
55538;BME280;41383;51.418;7.286;2022-12-18T00:10:28;101033.00;;;-0.77;60.93
55538;BME280;41383;51.418;7.286;2022-12-18T00:12:53;101028.53;;;-0.95;60.96
55538;BME280;41383;51.418;7.286;2022-12-18T00:15:18;101034.78;;;-0.86;60.89
55538;BME280;41383;51.418;7.286;2022-12-18T00:17:44;101041.16;;;-1.06;61.43
55538;BME280;41383;51.418;7.286;2022-12-18T00:20:09;101049.50;;;-0.90;60.73
55538;BME280;41383;51.418;7.286;2022-12-18T00:22:35;101056.44;;;-0.79;60.51
55538;BME280;41383;51.418;7.286;2022-12-18T00:25:00;101057.69;;;-0.65;60.74
55538;BME280;41383;51.418;7.286;2022-12-18T00:27:25;101063.53;;;-0.70;60.29
55538;BME280;41383;51.418;7.286;2022-12-18T00:29:50;101062.72;;;-0.62;60.33
55538;BME280;41383;51.418;7.286;2022-12-18T00:32:16;101055.47;;;-0.70;59.59
55538;BME280;41383;51.418;7.286;2022-12-18T00:34:41;101046.66;;;-0.62;59.15
55538;BME280;41383;51.418;7.286;2022-12-18T00:37:06;101045.06;;;-0.73;59.69
55538;BME280;41383;51.418;7.286;2022-12-18T00:39:32;101037.41;;;-0.68;59.49
55538;BME280;41383;51.418;7.286;2022-12-18T00:41:57;101040.44;;;-0.63;58.98
55538;BME280;41383;51.418;7.286;2022-12-18T00:44:41;101050.13;;;-0.70;58.98
55538;BME280;41383;51.418;7.286;2022-12-18T00:47:06;101040.78;;;-0.66;59.16
55538;BME280;41383;51.418;7.286;2022-12-18T00:49:31;101041.06;;;-0.69;58.74
55538;BME280;41383;51.418;7.286;2022-12-18T00:51:57;101049.59;;;-0.74;59.28
55538;BME280;41383;51.418;7.286;2022-12-18T00:54:22;101033.53;;;-0.74;59.04
55538;BME280;41383;51.418;7.286;2022-12-18T00:56:47;101045.84;;;-0.81;58.96
55538;BME280;41383;51.418;7.286;2022-12-18T00:59:13;101038.09;;;-0.66;59.00
55538;BME280;41383;51.418;7.286;2022-12-18T01:01:38;101037.47;;;-0.60;58.96
55538;BME280;41383;51.418;7.286;2022-12-18T01:04:03;101042.13;;;-0.62;59.18
55538;BME280;41383;51.418;7.286;2022-12-18T01:06:29;101036.94;;;-0.63;59.11
55538;BME280;41383;51.418;7.286;2022-12-18T01:08:55;101033.28;;;-0.54;59.63
55538;BME280;41383;51.418;7.286;2022-12-18T01:11:20;101028.84;;;-0.45;59.27
55538;BME280;41383;51.418;7.286;2022-12-18T01:13:46;101044.06;;;-0.45;59.12
55538;BME280;41383;51.418;7.286;2022-12-18T01:16:12;101042.91;;;-0.43;59.56
55538;BME280;41383;51.418;7.286;2022-12-18T01:18:38;101042.91;;;-0.43;59.27
55538;BME280;41383;51.418;7.286;2022-12-18T01:21:15;101041.91;;;-0.42;59.16
55538;BME280;41383;51.418;7.286;2022-12-18T01:23:44;101043.78;;;-0.34;59.35
55538;BME280;41383;51.418;7.286;2022-12-18T01:26:14;101044.63;;;-0.33;59.55
55538;BME280;41383;51.418;7.286;2022-12-18T01:28:41;101044.75;;;-0.43;59.69
55538;BME280;41383;51.418;7.286;2022-12-18T01:31:27;101050.94;;;-0.43;59.59
55538;BME280;41383;51.418;7.286;2022-12-18T01:33:53;101061.47;;;-0.50;60.01
55538;BME280;41383;51.418;7.286;2022-12-18T01:36:28;101067.97;;;-0.52;60.31
55538;BME280;41383;51.418;7.286;2022-12-18T01:38:54;101063.34;;;-0.42;60.54
55538;BME280;41383;51.418;7.286;2022-12-18T01:41:24;101055.97;;;-0.40;60.16
55538;BME280;41383;51.418;7.286;2022-12-18T01:43:53;101058.91;;;-0.60;60.14
55538;BME280;41383;51.418;7.286;2022-12-18T01:46:20;101053.78;;;-0.71;60.87
55538;BME280;41383;51.418;7.286;2022-12-18T01:48:47;101048.84;;;-0.57;60.93
55538;BME280;41383;51.418;7.286;2022-12-18T01:51:14;101040.88;;;-0.49;60.27
55538;BME280;41383;51.418;7.286;2022-12-18T01:53:41;101041.34;;;-0.54;60.78
55538;BME280;41383;51.418;7.286;2022-12-18T01:56:08;101033.66;;;-0.75;60.80
55538;BME280;41383;51.418;7.286;2022-12-18T01:58:46;101030.47;;;-1.06;61.16
55538;BME280;41383;51.418;7.286;2022-12-18T02:01:13;101032.69;;;-0.74;61.48
55538;BME280;41383;51.418;7.286;2022-12-18T02:03:42;101022.88;;;-0.92;61.60
55538;BME280;41383;51.418;7.286;2022-12-18T02:06:22;101017.81;;;-0.95;62.13
55538;BME280;41383;51.418;7.286;2022-12-18T02:09:04;101029.22;;;-0.93;62.26
55538;BME280;41383;51.418;7.286;2022-12-18T02:19:40;101043.00;;;-0.88;61.95
55538;BME280;41383;51.418;7.286;2022-12-18T02:22:35;101044.09;;;-0.72;61.93
55538;BME280;41383;51.418;7.286;2022-12-18T02:27:48;101030.91;;;-0.92;62.32
55538;BME280;41383;51.418;7.286;2022-12-18T02:30:16;101028.06;;;-0.90;62.26
55538;BME280;41383;51.418;7.286;2022-12-18T02:32:46;101012.34;;;-1.12;62.82
55538;BME280;41383;51.418;7.286;2022-12-18T02:35:20;101015.63;;;-1.00;62.93
55538;BME280;41383;51.418;7.286;2022-12-18T02:37:47;101016.03;;;-1.13;62.67
55538;BME280;41383;51.418;7.286;2022-12-18T02:40:14;101016.84;;;-0.94;62.52
55538;BME280;41383;51.418;7.286;2022-12-18T02:42:40;101002.88;;;-1.06;62.85
55538;BME280;41383;51.418;7.286;2022-12-18T02:45:06;100997.97;;;-1.11;62.83
55538;BME280;41383;51.418;7.286;2022-12-18T02:47:34;101006.63;;;-1.17;62.75
55538;BME280;41383;51.418;7.286;2022-12-18T02:53:13;101023.44;;;-1.07;63.22
55538;BME280;41383;51.418;7.286;2022-12-18T02:55:56;101026.47;;;-1.01;62.72
55538;BME280;41383;51.418;7.286;2022-12-18T02:58:43;101019.41;;;-1.11;63.10
55538;BME280;41383;51.418;7.286;2022-12-18T03:03:55;101021.97;;;-1.01;62.89
55538;BME280;41383;51.418;7.286;2022-12-18T03:08:56;101013.72;;;-1.08;62.92
55538;BME280;41383;51.418;7.286;2022-12-18T03:11:22;101013.78;;;-0.99;63.09
55538;BME280;41383;51.418;7.286;2022-12-18T03:14:09;101013.94;;;-1.01;62.94
55538;BME280;41383;51.418;7.286;2022-12-18T03:16:36;101011.66;;;-0.87;62.32
55538;BME280;41383;51.418;7.286;2022-12-18T03:19:07;101013.59;;;-1.06;62.56
55538;BME280;41383;51.418;7.286;2022-12-18T03:21:41;101008.22;;;-1.06;62.80
55538;BME280;41383;51.418;7.286;2022-12-18T03:24:09;101005.44;;;-0.96;62.87
55538;BME280;41383;51.418;7.286;2022-12-18T03:26:35;101017.13;;;-0.97;62.61
55538;BME280;41383;51.418;7.286;2022-12-18T03:29:45;101008.81;;;-0.94;62.68
55538;BME280;41383;51.418;7.286;2022-12-18T03:32:11;101005.81;;;-0.91;62.58
55538;BME280;41383;51.418;7.286;2022-12-18T03:34:40;101006.53;;;-0.80;62.21
55538;BME280;41383;51.418;7.286;2022-12-18T03:37:06;101002.06;;;-0.72;61.94
55538;BME280;41383;51.418;7.286;2022-12-18T03:39:33;100998.84;;;-0.75;62.41
55538;BME280;41383;51.418;7.286;2022-12-18T03:42:07;100990.28;;;-0.79;62.28
55538;BME280;41383;51.418;7.286;2022-12-18T03:47:33;100985.94;;;-0.80;62.17
55538;BME280;41383;51.418;7.286;2022-12-18T03:50:12;100996.50;;;-0.78;62.30
55538;BME280;41383;51.418;7.286;2022-12-18T03:52:49;101005.84;;;-0.83;61.86
55538;BME280;41383;51.418;7.286;2022-12-18T03:55:17;101008.53;;;-0.83;62.27
55538;BME280;41383;51.418;7.286;2022-12-18T03:57:45;101000.88;;;-0.77;61.99
55538;BME280;41383;51.418;7.286;2022-12-18T04:00:14;100996.72;;;-0.72;61.77
55538;BME280;41383;51.418;7.286;2022-12-18T04:02:52;101002.66;;;-0.86;61.56
55538;BME280;41383;51.418;7.286;2022-12-18T04:05:20;101003.09;;;-0.64;61.69
55538;BME280;41383;51.418;7.286;2022-12-18T04:07:48;100995.41;;;-0.67;61.34
55538;BME280;41383;51.418;7.286;2022-12-18T04:10:15;100993.56;;;-0.59;60.88
55538;BME280;41383;51.418;7.286;2022-12-18T04:12:41;100998.00;;;-0.49;60.66
55538;BME280;41383;51.418;7.286;2022-12-18T04:15:07;101000.25;;;-0.63;60.55
55538;BME280;41383;51.418;7.286;2022-12-18T04:17:33;100997.56;;;-0.63;60.62
55538;BME280;41383;51.418;7.286;2022-12-18T04:19:58;100999.56;;;-0.65;61.53
55538;BME280;41383;51.418;7.286;2022-12-18T04:22:23;100992.38;;;-0.64;61.21
55538;BME280;41383;51.418;7.286;2022-12-18T04:24:48;101003.94;;;-0.64;60.86
55538;BME280;41383;51.418;7.286;2022-12-18T04:27:14;101002.22;;;-0.73;61.30
55538;BME280;41383;51.418;7.286;2022-12-18T04:29:39;101006.94;;;-0.67;61.32
55538;BME280;41383;51.418;7.286;2022-12-18T04:32:04;101004.00;;;-0.55;60.56
55538;BME280;41383;51.418;7.286;2022-12-18T04:34:30;100996.06;;;-0.65;60.70
55538;BME280;41383;51.418;7.286;2022-12-18T04:36:55;101005.66;;;-0.54;60.51
55538;BME280;41383;51.418;7.286;2022-12-18T04:39:20;100998.28;;;-0.52;59.89
55538;BME280;41383;51.418;7.286;2022-12-18T04:41:46;100999.53;;;-0.73;60.90
55538;BME280;41383;51.418;7.286;2022-12-18T04:44:11;101000.53;;;-0.74;60.66
55538;BME280;41383;51.418;7.286;2022-12-18T04:46:36;100993.91;;;-0.62;60.06
55538;BME280;41383;51.418;7.286;2022-12-18T04:49:02;101001.66;;;-0.50;59.90
55538;BME280;41383;51.418;7.286;2022-12-18T04:51:27;100998.16;;;-0.42;59.62
55538;BME280;41383;51.418;7.286;2022-12-18T04:53:53;100996.16;;;-0.40;59.05
55538;BME280;41383;51.418;7.286;2022-12-18T04:56:18;100995.00;;;-0.38;58.90
55538;BME280;41383;51.418;7.286;2022-12-18T04:58:44;100992.28;;;-0.46;59.16
55538;BME280;41383;51.418;7.286;2022-12-18T05:01:11;100988.72;;;-0.55;59.67
55538;BME280;41383;51.418;7.286;2022-12-18T05:03:37;100998.13;;;-0.51;59.09
55538;BME280;41383;51.418;7.286;2022-12-18T05:06:03;100986.72;;;-0.53;58.71
55538;BME280;41383;51.418;7.286;2022-12-18T05:08:29;100990.28;;;-0.44;58.75
55538;BME280;41383;51.418;7.286;2022-12-18T05:11:11;100987.66;;;-0.36;58.51
55538;BME280;41383;51.418;7.286;2022-12-18T05:13:37;100978.94;;;-0.38;57.81
55538;BME280;41383;51.418;7.286;2022-12-18T05:16:04;100977.13;;;-0.29;57.88
55538;BME280;41383;51.418;7.286;2022-12-18T05:18:29;100973.28;;;-0.18;57.46
55538;BME280;41383;51.418;7.286;2022-12-18T05:20:55;100973.78;;;-0.14;57.22
55538;BME280;41383;51.418;7.286;2022-12-18T05:23:22;100968.97;;;-0.10;57.27
55538;BME280;41383;51.418;7.286;2022-12-18T05:25:59;100969.94;;;-0.20;56.98
55538;BME280;41383;51.418;7.286;2022-12-18T05:28:26;100965.63;;;-0.13;56.90
55538;BME280;41383;51.418;7.286;2022-12-18T05:30:53;100956.91;;;-0.15;56.58
55538;BME280;41383;51.418;7.286;2022-12-18T05:33:20;100955.53;;;-0.19;57.00
55538;BME280;41383;51.418;7.286;2022-12-18T05:35:50;100953.50;;;-0.33;56.95
55538;BME280;41383;51.418;7.286;2022-12-18T05:38:17;100947.97;;;-0.32;56.95
55538;BME280;41383;51.418;7.286;2022-12-18T05:40:42;100952.78;;;-0.44;56.85
55538;BME280;41383;51.418;7.286;2022-12-18T05:43:08;100958.78;;;-0.50;56.87
55538;BME280;41383;51.418;7.286;2022-12-18T05:45:37;100968.72;;;-0.34;56.49
55538;BME280;41383;51.418;7.286;2022-12-18T05:48:02;100965.22;;;-0.26;55.71
55538;BME280;41383;51.418;7.286;2022-12-18T05:50:27;100960.56;;;-0.16;55.74
55538;BME280;41383;51.418;7.286;2022-12-18T05:52:52;100976.66;;;-0.16;55.83
55538;BME280;41383;51.418;7.286;2022-12-18T05:55:18;100981.69;;;-0.21;56.09
55538;BME280;41383;51.418;7.286;2022-12-18T05:57:43;100986.69;;;-0.18;55.33
55538;BME280;41383;51.418;7.286;2022-12-18T06:00:09;100982.84;;;-0.15;55.42
55538;BME280;41383;51.418;7.286;2022-12-18T06:02:34;100990.22;;;-0.17;54.83
55538;BME280;41383;51.418;7.286;2022-12-18T06:05:00;100980.63;;;-0.28;55.44
55538;BME280;41383;51.418;7.286;2022-12-18T06:07:25;100988.34;;;-0.25;55.60
55538;BME280;41383;51.418;7.286;2022-12-18T06:09:50;100991.84;;;-0.33;56.55
55538;BME280;41383;51.418;7.286;2022-12-18T06:12:15;100998.88;;;-0.32;55.66
55538;BME280;41383;51.418;7.286;2022-12-18T06:14:40;101005.41;;;-0.34;55.83
55538;BME280;41383;51.418;7.286;2022-12-18T06:17:06;101013.06;;;-0.48;56.50
55538;BME280;41383;51.418;7.286;2022-12-18T06:19:31;101014.97;;;-0.67;57.15
55538;BME280;41383;51.418;7.286;2022-12-18T06:21:56;101014.91;;;-0.75;56.68
55538;BME280;41383;51.418;7.286;2022-12-18T06:24:24;101028.91;;;-0.90;57.63
55538;BME280;41383;51.418;7.286;2022-12-18T06:26:49;101030.22;;;-0.94;57.47
55538;BME280;41383;51.418;7.286;2022-12-18T06:29:14;101036.28;;;-0.92;57.85
55538;BME280;41383;51.418;7.286;2022-12-18T06:31:39;101035.19;;;-0.99;58.19
55538;BME280;41383;51.418;7.286;2022-12-18T06:34:05;101028.22;;;-0.92;57.94
55538;BME280;41383;51.418;7.286;2022-12-18T06:36:30;101030.81;;;-0.82;57.19
55538;BME280;41383;51.418;7.286;2022-12-18T06:38:56;101034.16;;;-0.53;56.03
55538;BME280;41383;51.418;7.286;2022-12-18T06:41:22;101034.03;;;-0.43;55.51
55538;BME280;41383;51.418;7.286;2022-12-18T06:43:47;101026.66;;;-0.41;54.51
55538;BME280;41383;51.418;7.286;2022-12-18T06:46:13;101024.16;;;-0.43;54.19
55538;BME280;41383;51.418;7.286;2022-12-18T06:48:38;101021.06;;;-0.56;55.39
55538;BME280;41383;51.418;7.286;2022-12-18T06:51:04;101022.31;;;-0.77;56.28
55538;BME280;41383;51.418;7.286;2022-12-18T06:53:29;101021.16;;;-0.66;55.56
55538;BME280;41383;51.418;7.286;2022-12-18T06:56:05;101008.84;;;-0.59;54.42
55538;BME280;41383;51.418;7.286;2022-12-18T06:58:31;101001.94;;;-0.62;55.37
55538;BME280;41383;51.418;7.286;2022-12-18T07:01:01;100995.28;;;-0.57;53.81
55538;BME280;41383;51.418;7.286;2022-12-18T07:03:26;101004.66;;;-0.53;54.02
55538;BME280;41383;51.418;7.286;2022-12-18T07:05:51;100994.94;;;-0.54;53.59
55538;BME280;41383;51.418;7.286;2022-12-18T07:08:17;100986.03;;;-0.63;53.14
55538;BME280;41383;51.418;7.286;2022-12-18T07:10:43;100987.19;;;-0.66;53.49
55538;BME280;41383;51.418;7.286;2022-12-18T07:13:09;100977.50;;;-0.59;53.63
55538;BME280;41383;51.418;7.286;2022-12-18T07:15:34;100979.31;;;-0.67;52.66
55538;BME280;41383;51.418;7.286;2022-12-18T07:17:59;100983.50;;;-0.65;53.25
55538;BME280;41383;51.418;7.286;2022-12-18T07:20:24;100968.78;;;-0.61;53.09
55538;BME280;41383;51.418;7.286;2022-12-18T07:22:50;100968.06;;;-0.71;53.13
55538;BME280;41383;51.418;7.286;2022-12-18T07:25:15;100967.13;;;-0.62;52.50
55538;BME280;41383;51.418;7.286;2022-12-18T07:27:40;100965.00;;;-0.50;52.00
55538;BME280;41383;51.418;7.286;2022-12-18T07:30:06;100965.63;;;-0.56;52.17
55538;BME280;41383;51.418;7.286;2022-12-18T07:32:31;100963.66;;;-0.45;52.61
55538;BME280;41383;51.418;7.286;2022-12-18T07:34:57;100962.84;;;-0.38;52.20
55538;BME280;41383;51.418;7.286;2022-12-18T07:37:22;100963.22;;;-0.24;51.69
55538;BME280;41383;51.418;7.286;2022-12-18T07:39:47;100949.16;;;-0.18;51.15
55538;BME280;41383;51.418;7.286;2022-12-18T07:42:12;100953.03;;;-0.12;51.11
55538;BME280;41383;51.418;7.286;2022-12-18T07:44:56;100939.50;;;-0.02;50.70
55538;BME280;41383;51.418;7.286;2022-12-18T07:47:21;100947.84;;;-0.14;50.53
55538;BME280;41383;51.418;7.286;2022-12-18T07:49:48;100945.81;;;-0.20;50.37
55538;BME280;41383;51.418;7.286;2022-12-18T07:52:13;100947.16;;;-0.16;50.17
55538;BME280;41383;51.418;7.286;2022-12-18T07:54:39;100943.75;;;-0.34;50.44
55538;BME280;41383;51.418;7.286;2022-12-18T07:57:05;100945.63;;;-0.18;50.40
55538;BME280;41383;51.418;7.286;2022-12-18T07:59:30;100949.19;;;-0.09;50.53
55538;BME280;41383;51.418;7.286;2022-12-18T08:01:56;100954.06;;;-0.05;49.73
55538;BME280;41383;51.418;7.286;2022-12-18T08:04:21;100961.59;;;0.08;49.55
55538;BME280;41383;51.418;7.286;2022-12-18T08:06:46;100953.25;;;0.28;49.13
55538;BME280;41383;51.418;7.286;2022-12-18T08:09:12;100949.75;;;0.36;49.61
55538;BME280;41383;51.418;7.286;2022-12-18T08:11:37;100949.91;;;0.34;48.96
55538;BME280;41383;51.418;7.286;2022-12-18T08:14:02;100946.88;;;0.29;49.50
55538;BME280;41383;51.418;7.286;2022-12-18T08:16:27;100957.25;;;0.41;49.41
55538;BME280;41383;51.418;7.286;2022-12-18T08:18:53;100945.72;;;0.32;49.44
55538;BME280;41383;51.418;7.286;2022-12-18T08:21:21;100936.47;;;0.43;49.53
55538;BME280;41383;51.418;7.286;2022-12-18T08:23:49;100944.03;;;0.48;49.38
55538;BME280;41383;51.418;7.286;2022-12-18T08:26:14;100931.28;;;0.58;49.15
55538;BME280;41383;51.418;7.286;2022-12-18T08:28:40;100927.06;;;0.47;49.02
55538;BME280;41383;51.418;7.286;2022-12-18T08:31:06;100924.56;;;0.45;48.71
55538;BME280;41383;51.418;7.286;2022-12-18T08:33:31;100915.69;;;0.28;48.93
55538;BME280;41383;51.418;7.286;2022-12-18T08:36:01;100917.00;;;0.41;48.16
55538;BME280;41383;51.418;7.286;2022-12-18T08:38:26;100904.25;;;0.43;48.39
55538;BME280;41383;51.418;7.286;2022-12-18T08:41:03;100905.97;;;0.44;47.90
55538;BME280;41383;51.418;7.286;2022-12-18T08:43:28;100900.56;;;0.61;48.83
55538;BME280;41383;51.418;7.286;2022-12-18T08:46:12;100896.56;;;0.56;48.40
55538;BME280;41383;51.418;7.286;2022-12-18T08:48:37;100894.53;;;0.50;47.56
55538;BME280;41383;51.418;7.286;2022-12-18T08:51:03;100895.22;;;0.61;47.63
55538;BME280;41383;51.418;7.286;2022-12-18T08:53:28;100888.31;;;0.58;48.09
55538;BME280;41383;51.418;7.286;2022-12-18T08:55:56;100894.53;;;0.58;47.53
55538;BME280;41383;51.418;7.286;2022-12-18T08:58:21;100889.16;;;0.58;47.52
55538;BME280;41383;51.418;7.286;2022-12-18T09:00:46;100894.16;;;0.70;48.25
55538;BME280;41383;51.418;7.286;2022-12-18T09:03:16;100892.31;;;0.71;48.56
55538;BME280;41383;51.418;7.286;2022-12-18T09:05:42;100876.53;;;0.76;48.18
55538;BME280;41383;51.418;7.286;2022-12-18T09:08:07;100887.81;;;0.71;47.74
55538;BME280;41383;51.418;7.286;2022-12-18T09:10:33;100879.56;;;0.81;48.43
55538;BME280;41383;51.418;7.286;2022-12-18T09:12:58;100881.22;;;0.82;48.19
55538;BME280;41383;51.418;7.286;2022-12-18T09:15:23;100887.06;;;0.86;48.39
55538;BME280;41383;51.418;7.286;2022-12-18T09:17:48;100889.44;;;0.89;48.10
55538;BME280;41383;51.418;7.286;2022-12-18T09:20:15;100874.94;;;0.98;47.98
55538;BME280;41383;51.418;7.286;2022-12-18T09:22:40;100868.44;;;0.92;47.77
55538;BME280;41383;51.418;7.286;2022-12-18T09:25:06;100867.94;;;0.89;47.87
55538;BME280;41383;51.418;7.286;2022-12-18T09:27:33;100866.59;;;0.93;48.57
55538;BME280;41383;51.418;7.286;2022-12-18T09:29:58;100864.00;;;1.08;48.10
55538;BME280;41383;51.418;7.286;2022-12-18T09:32:23;100875.59;;;1.09;47.21
55538;BME280;41383;51.418;7.286;2022-12-18T09:34:49;100878.94;;;1.11;46.77
55538;BME280;41383;51.418;7.286;2022-12-18T09:37:14;100863.13;;;1.16;46.75
55538;BME280;41383;51.418;7.286;2022-12-18T09:39:39;100864.44;;;1.20;47.31
55538;BME280;41383;51.418;7.286;2022-12-18T09:42:05;100862.75;;;1.27;46.87
55538;BME280;41383;51.418;7.286;2022-12-18T09:44:44;100859.66;;;1.39;46.83
55538;BME280;41383;51.418;7.286;2022-12-18T09:47:16;100852.19;;;1.49;46.98
55538;BME280;41383;51.418;7.286;2022-12-18T09:49:45;100852.88;;;1.51;47.23
55538;BME280;41383;51.418;7.286;2022-12-18T09:52:19;100851.78;;;1.61;46.55
55538;BME280;41383;51.418;7.286;2022-12-18T09:54:51;100861.88;;;1.59;47.61
55538;BME280;41383;51.418;7.286;2022-12-18T09:57:21;100873.91;;;1.71;46.90
55538;BME280;41383;51.418;7.286;2022-12-18T09:59:53;100877.31;;;1.65;44.98
55538;BME280;41383;51.418;7.286;2022-12-18T10:02:22;100874.47;;;1.67;45.77
55538;BME280;41383;51.418;7.286;2022-12-18T10:05:13;100876.31;;;1.66;45.77
55538;BME280;41383;51.418;7.286;2022-12-18T10:13:41;100861.19;;;1.89;45.68
55538;BME280;41383;51.418;7.286;2022-12-18T10:16:19;100851.09;;;1.91;45.59
55538;BME280;41383;51.418;7.286;2022-12-18T10:19:09;100842.69;;;1.85;45.86
55538;BME280;41383;51.418;7.286;2022-12-18T10:21:49;100824.72;;;1.86;45.66
55538;BME280;41383;51.418;7.286;2022-12-18T10:24:39;100813.13;;;1.85;45.01
55538;BME280;41383;51.418;7.286;2022-12-18T10:27:18;100808.78;;;2.00;45.26
55538;BME280;41383;51.418;7.286;2022-12-18T10:29:46;100811.22;;;1.94;45.70
55538;BME280;41383;51.418;7.286;2022-12-18T10:32:24;100818.56;;;2.01;44.81
55538;BME280;41383;51.418;7.286;2022-12-18T10:34:52;100817.38;;;2.03;44.84
55538;BME280;41383;51.418;7.286;2022-12-18T10:37:21;100809.31;;;2.18;44.98
55538;BME280;41383;51.418;7.286;2022-12-18T10:40:14;100803.84;;;2.27;45.16
55538;BME280;41383;51.418;7.286;2022-12-18T10:42:40;100806.91;;;2.24;45.21
55538;BME280;41383;51.418;7.286;2022-12-18T10:45:15;100797.53;;;2.35;45.68
55538;BME280;41383;51.418;7.286;2022-12-18T10:47:49;100793.69;;;2.14;44.35
55538;BME280;41383;51.418;7.286;2022-12-18T10:50:20;100800.88;;;2.37;44.84
55538;BME280;41383;51.418;7.286;2022-12-18T10:52:55;100795.31;;;2.23;44.54
55538;BME280;41383;51.418;7.286;2022-12-18T10:55:20;100801.00;;;2.43;45.71
55538;BME280;41383;51.418;7.286;2022-12-18T10:57:46;100800.34;;;2.41;46.35
55538;BME280;41383;51.418;7.286;2022-12-18T11:00:28;100797.25;;;2.44;44.17
55538;BME280;41383;51.418;7.286;2022-12-18T11:02:55;100800.34;;;2.41;44.15
55538;BME280;41383;51.418;7.286;2022-12-18T11:05:32;100795.97;;;2.55;45.88
55538;BME280;41383;51.418;7.286;2022-12-18T11:07:59;100790.41;;;2.42;47.82
55538;BME280;41383;51.418;7.286;2022-12-18T11:12:55;100789.56;;;2.56;45.35
55538;BME280;41383;51.418;7.286;2022-12-18T11:15:27;100792.44;;;2.55;46.83
55538;BME280;41383;51.418;7.286;2022-12-18T11:17:54;100779.06;;;2.62;47.28
55538;BME280;41383;51.418;7.286;2022-12-18T11:20:31;100773.59;;;2.70;45.76
55538;BME280;41383;51.418;7.286;2022-12-18T11:23:03;100778.44;;;2.60;44.21
55538;BME280;41383;51.418;7.286;2022-12-18T11:25:29;100777.03;;;2.64;45.80
55538;BME280;41383;51.418;7.286;2022-12-18T11:28:24;100790.56;;;2.71;46.06
55538;BME280;41383;51.418;7.286;2022-12-18T11:31:09;100774.41;;;2.71;46.70
55538;BME280;41383;51.418;7.286;2022-12-18T11:33:38;100769.25;;;2.54;47.84
55538;BME280;41383;51.418;7.286;2022-12-18T11:36:08;100765.72;;;2.53;47.66
55538;BME280;41383;51.418;7.286;2022-12-18T11:38:37;100757.59;;;2.68;47.25
55538;BME280;41383;51.418;7.286;2022-12-18T11:41:41;100760.78;;;2.72;47.35
55538;BME280;41383;51.418;7.286;2022-12-18T11:44:40;100751.59;;;2.66;48.16
55538;BME280;41383;51.418;7.286;2022-12-18T11:47:46;100752.84;;;2.71;47.56
55538;BME280;41383;51.418;7.286;2022-12-18T11:50:17;100739.69;;;2.76;47.87
55538;BME280;41383;51.418;7.286;2022-12-18T11:52:43;100723.13;;;2.79;47.02
55538;BME280;41383;51.418;7.286;2022-12-18T11:58:12;100702.50;;;2.86;43.93
55538;BME280;41383;51.418;7.286;2022-12-18T12:00:52;100703.03;;;2.97;44.61
55538;BME280;41383;51.418;7.286;2022-12-18T12:03:27;100703.78;;;2.90;43.31
55538;BME280;41383;51.418;7.286;2022-12-18T12:17:07;100689.16;;;2.78;42.77
55538;BME280;41383;51.418;7.286;2022-12-18T12:19:44;100697.81;;;2.95;43.06
55538;BME280;41383;51.418;7.286;2022-12-18T12:22:31;100697.56;;;2.90;42.42
55538;BME280;41383;51.418;7.286;2022-12-18T12:25:25;100693.47;;;2.94;42.11
55538;BME280;41383;51.418;7.286;2022-12-18T12:31:15;100686.59;;;2.91;43.33
55538;BME280;41383;51.418;7.286;2022-12-18T12:39:27;100674.81;;;2.92;42.37
55538;BME280;41383;51.418;7.286;2022-12-18T12:41:54;100679.25;;;2.63;41.92
55538;BME280;41383;51.418;7.286;2022-12-18T12:44:49;100672.59;;;2.81;42.85
55538;BME280;41383;51.418;7.286;2022-12-18T12:47:24;100678.75;;;2.75;42.79
55538;BME280;41383;51.418;7.286;2022-12-18T12:49:51;100679.50;;;2.68;42.78
55538;BME280;41383;51.418;7.286;2022-12-18T12:52:28;100677.31;;;2.57;42.73
55538;BME280;41383;51.418;7.286;2022-12-18T12:54:56;100669.63;;;2.54;42.42
55538;BME280;41383;51.418;7.286;2022-12-18T12:57:34;100676.94;;;2.60;43.77
55538;BME280;41383;51.418;7.286;2022-12-18T13:00:11;100672.75;;;2.58;43.51
55538;BME280;41383;51.418;7.286;2022-12-18T13:02:59;100670.31;;;2.78;43.20
55538;BME280;41383;51.418;7.286;2022-12-18T13:05:34;100680.03;;;2.79;43.77
55538;BME280;41383;51.418;7.286;2022-12-18T13:08:06;100674.47;;;2.80;44.38
55538;BME280;41383;51.418;7.286;2022-12-18T13:10:37;100676.78;;;2.84;43.56
55538;BME280;41383;51.418;7.286;2022-12-18T13:13:06;100667.72;;;2.91;43.61
55538;BME280;41383;51.418;7.286;2022-12-18T13:18:17;100667.69;;;2.85;44.59
55538;BME280;41383;51.418;7.286;2022-12-18T13:21:04;100667.47;;;2.49;44.90
55538;BME280;41383;51.418;7.286;2022-12-18T13:23:35;100664.88;;;2.56;44.57
55538;BME280;41383;51.418;7.286;2022-12-18T13:30:58;100667.56;;;2.56;45.56
55538;BME280;41383;51.418;7.286;2022-12-18T13:33:37;100665.25;;;2.53;45.75
55538;BME280;41383;51.418;7.286;2022-12-18T13:36:26;100675.69;;;2.26;45.66
55538;BME280;41383;51.418;7.286;2022-12-18T13:41:43;100670.84;;;2.36;46.42
55538;BME280;41383;51.418;7.286;2022-12-18T13:44:36;100671.50;;;2.23;46.40
55538;BME280;41383;51.418;7.286;2022-12-18T13:47:04;100664.63;;;2.36;46.75
55538;BME280;41383;51.418;7.286;2022-12-18T13:49:41;100667.44;;;2.12;47.63
55538;BME280;41383;51.418;7.286;2022-12-18T13:52:25;100667.16;;;2.07;48.22
55538;BME280;41383;51.418;7.286;2022-12-18T13:54:51;100663.53;;;2.00;48.30
55538;BME280;41383;51.418;7.286;2022-12-18T13:57:43;100657.78;;;1.72;48.81
55538;BME280;41383;51.418;7.286;2022-12-18T14:00:28;100645.41;;;1.63;49.45
55538;BME280;41383;51.418;7.286;2022-12-18T14:02:55;100642.66;;;1.71;49.80
55538;BME280;41383;51.418;7.286;2022-12-18T14:05:37;100649.25;;;1.84;49.46
55538;BME280;41383;51.418;7.286;2022-12-18T14:08:13;100641.47;;;1.89;49.65
55538;BME280;41383;51.418;7.286;2022-12-18T14:10:47;100632.94;;;1.70;50.34
55538;BME280;41383;51.418;7.286;2022-12-18T14:13:32;100625.06;;;1.69;49.80